createdAt,value
2023-04-11T00:00:39.264Z,66.53
2023-04-11T00:03:07.424Z,66.52
2023-04-11T00:05:34.898Z,66.79
2023-04-11T00:08:02.369Z,66.63
2023-04-11T00:10:29.568Z,66.76
2023-04-11T00:12:57.525Z,66.84
2023-04-11T00:15:27.031Z,66.89
2023-04-11T00:17:57.965Z,67.01
2023-04-11T00:20:25.420Z,66.98
2023-04-11T00:22:54.294Z,67.11
2023-04-11T00:25:21.809Z,67.14
2023-04-11T00:27:49.025Z,67.33
2023-04-11T00:30:16.849Z,67.30
2023-04-11T00:32:46.736Z,67.02
2023-04-11T00:35:16.126Z,66.92
2023-04-11T00:37:44.468Z,66.98
2023-04-11T00:40:13.204Z,67.18
2023-04-11T00:42:40.992Z,67.04
2023-04-11T00:45:09.317Z,67.36
2023-04-11T00:47:36.938Z,67.38
2023-04-11T00:50:05.418Z,67.37
2023-04-11T00:52:34.682Z,67.74
2023-04-11T00:55:03.067Z,67.66
2023-04-11T00:57:30.950Z,67.46
2023-04-11T00:59:59.169Z,67.69
2023-04-11T01:02:26.866Z,67.66
2023-04-11T01:04:55.303Z,67.96
2023-04-11T01:07:24.716Z,68.17
2023-04-11T01:09:54.504Z,68.02
2023-04-11T01:12:22.688Z,67.88
2023-04-11T01:14:50.042Z,68.00
2023-04-11T01:17:17.837Z,68.04
2023-04-11T01:19:45.014Z,67.95
2023-04-11T01:22:15.342Z,68.29
2023-04-11T01:24:44.768Z,67.78
2023-04-11T01:27:12.071Z,67.55
2023-04-11T01:29:39.374Z,67.89
2023-04-11T01:32:06.996Z,67.72
2023-04-11T01:34:36.384Z,68.07
2023-04-11T01:37:04.282Z,67.68
2023-04-11T01:39:31.587Z,67.74
2023-04-11T01:42:02.937Z,67.59
2023-04-11T01:44:32.457Z,67.84
2023-04-11T01:47:00.290Z,67.82
2023-04-11T01:49:27.704Z,67.90
2023-04-11T01:51:55.006Z,67.97
2023-04-11T01:54:22.465Z,68.05
2023-04-11T01:56:50.274Z,67.93
2023-04-11T01:59:19.649Z,68.23
2023-04-11T02:01:47.080Z,68.20
2023-04-11T02:04:14.631Z,68.21
2023-04-11T02:06:42.119Z,68.56
2023-04-11T02:09:09.378Z,68.70
2023-04-11T02:11:36.829Z,69.10
2023-04-11T02:14:06.384Z,69.50
2023-04-11T02:16:56.264Z,69.78
2023-04-11T02:19:26.313Z,69.98
2023-04-11T02:21:53.588Z,70.33
2023-04-11T02:24:21.106Z,70.91
2023-04-11T02:26:48.395Z,70.85
2023-04-11T02:29:16.103Z,71.23
2023-04-11T02:31:43.487Z,71.57
2023-04-11T02:34:12.300Z,71.86
2023-04-11T02:36:39.610Z,71.79
2023-04-11T02:39:07.379Z,72.26
2023-04-11T02:41:34.610Z,72.22
2023-04-11T02:44:02.008Z,72.37
2023-04-11T02:46:29.482Z,72.37
2023-04-11T02:48:57.319Z,72.48
2023-04-11T02:51:27.283Z,73.00
2023-04-11T02:53:55.347Z,73.10
2023-04-11T02:56:22.877Z,73.28
2023-04-11T02:58:54.987Z,73.11
2023-04-11T03:01:25.629Z,73.43
2023-04-11T03:03:55.174Z,73.56
2023-04-11T03:06:28.296Z,73.90
2023-04-11T03:08:59.556Z,73.89
2023-04-11T03:11:27.110Z,74.14
2023-04-11T03:13:55.033Z,74.21
2023-04-11T03:16:22.681Z,74.20
2023-04-11T03:18:50.100Z,74.31
2023-04-11T03:21:17.528Z,74.47
2023-04-11T03:23:47.985Z,74.38
2023-04-11T03:26:16.248Z,74.69
2023-04-11T03:28:44.810Z,74.73
2023-04-11T03:31:16.026Z,74.97
2023-04-11T03:33:45.106Z,75.35
2023-04-11T03:36:12.530Z,75.96
2023-04-11T03:38:40.106Z,76.04
2023-04-11T03:41:09.750Z,76.43
2023-04-11T03:43:37.392Z,76.62
2023-04-11T03:46:05.904Z,76.83
2023-04-11T03:48:43.517Z,76.90
2023-04-11T03:51:11.123Z,76.23
2023-04-11T03:53:45.559Z,75.94
2023-04-11T03:56:31.044Z,75.50
2023-04-11T03:58:58.852Z,75.75
2023-04-11T04:01:32.690Z,76.78
2023-04-11T04:04:05.182Z,77.54
2023-04-11T04:06:36.800Z,76.93
2023-04-11T04:09:05.081Z,77.38
2023-04-11T04:11:45.750Z,77.39
2023-04-11T04:14:13.747Z,76.96
2023-04-11T04:16:41.274Z,76.64
2023-04-11T04:19:08.825Z,76.68
2023-04-11T04:21:38.192Z,76.80
2023-04-11T04:24:06.399Z,77.18
2023-04-11T04:26:50.171Z,76.77
2023-04-11T04:29:39.604Z,76.76
2023-04-11T04:32:12.806Z,76.83
2023-04-11T04:34:55.319Z,76.83
2023-04-11T04:37:28.212Z,76.95
2023-04-11T04:40:13.296Z,77.01
2023-04-11T04:42:58.569Z,76.62
2023-04-11T04:45:36.941Z,76.24
2023-04-11T04:48:04.587Z,75.94
2023-04-11T04:50:32.558Z,75.42
2023-04-11T04:52:59.808Z,75.51
2023-04-11T04:55:29.016Z,75.57
2023-04-11T04:57:57.948Z,75.63
2023-04-11T05:00:26.193Z,75.62
2023-04-11T05:02:58.275Z,75.29
2023-04-11T05:05:30.257Z,75.02
2023-04-11T05:07:57.673Z,75.24
2023-04-11T05:10:25.203Z,75.35
2023-04-11T05:12:53.687Z,75.08
2023-04-11T05:15:23.606Z,74.52
2023-04-11T05:17:51.046Z,74.18
2023-04-11T05:20:18.842Z,74.10
2023-04-11T05:22:49.538Z,73.98
2023-04-11T05:25:18.333Z,74.22
2023-04-11T05:27:46.231Z,73.57
2023-04-11T05:30:14.337Z,73.52
2023-04-11T05:32:44.615Z,72.88
2023-04-11T05:35:12.101Z,72.36
2023-04-11T05:37:49.500Z,72.32
2023-04-11T05:40:16.899Z,71.97
2023-04-11T05:42:44.283Z,71.60
2023-04-11T05:45:12.060Z,71.13
2023-04-11T05:47:39.412Z,71.35
2023-04-11T05:50:10.765Z,71.24
2023-04-11T05:52:38.224Z,71.19
2023-04-11T05:55:07.495Z,70.87
2023-04-11T05:57:34.848Z,70.40
2023-04-11T06:00:02.387Z,70.24
2023-04-11T06:02:40.159Z,70.55
2023-04-11T06:05:11.980Z,70.47
2023-04-11T06:07:40.084Z,70.66
2023-04-11T06:10:08.616Z,70.94
2023-04-11T06:12:36.736Z,70.57
2023-04-11T06:15:04.937Z,68.78
2023-04-11T06:17:32.340Z,67.10
2023-04-11T06:19:59.622Z,67.60
2023-04-11T06:22:28.244Z,64.39
2023-04-11T06:24:55.782Z,60.84
2023-04-11T06:27:23.093Z,62.53
2023-04-11T06:29:50.647Z,60.22
2023-04-11T06:32:17.966Z,60.61
2023-04-11T06:34:45.574Z,61.01
2023-04-11T06:37:12.878Z,61.77
2023-04-11T06:39:41.758Z,61.47
2023-04-11T06:42:09.054Z,61.43
2023-04-11T06:44:36.366Z,61.35
2023-04-11T06:47:04.140Z,60.64
2023-04-11T06:49:31.592Z,59.61
2023-04-11T06:51:59.646Z,60.40
2023-04-11T06:54:26.924Z,60.26
2023-04-11T06:56:57.415Z,59.67
2023-04-11T06:59:24.971Z,58.12
2023-04-11T07:01:52.471Z,56.97
2023-04-11T07:04:20.107Z,56.70
2023-04-11T07:06:48.087Z,56.66
2023-04-11T07:09:15.532Z,57.22
2023-04-11T07:11:43.218Z,56.70
2023-04-11T07:14:12.023Z,57.11
2023-04-11T07:16:39.375Z,57.13
2023-04-11T07:19:06.799Z,56.99
2023-04-11T07:21:34.183Z,57.10
2023-04-11T07:24:01.675Z,56.98
2023-04-11T07:26:32.828Z,56.57
2023-04-11T07:29:00.966Z,56.28
2023-04-11T07:31:29.726Z,56.64
2023-04-11T07:33:57.168Z,55.17
2023-04-11T07:36:24.703Z,54.74
2023-04-11T07:38:52.452Z,55.05
2023-04-11T07:41:19.801Z,55.13
2023-04-11T07:43:47.209Z,54.36
2023-04-11T07:46:15.358Z,53.29
2023-04-11T07:48:44.484Z,53.42
2023-04-11T07:51:12.222Z,53.87
2023-04-11T07:53:39.606Z,52.13
2023-04-11T07:56:07.749Z,51.40
2023-04-11T07:58:35.081Z,50.27
2023-04-11T08:01:02.917Z,50.55
2023-04-11T08:03:30.518Z,48.68
2023-04-11T08:05:59.718Z,48.50
2023-04-11T08:08:26.946Z,45.58
2023-04-11T08:10:54.437Z,45.91
2023-04-11T08:13:21.756Z,47.23
2023-04-11T08:15:49.140Z,47.49
2023-04-11T08:18:16.635Z,47.51
2023-04-11T08:20:43.998Z,47.13
2023-04-11T08:23:12.611Z,46.38
2023-04-11T08:25:40.440Z,46.49
2023-04-11T08:28:10.107Z,46.05
2023-04-11T08:30:37.435Z,46.72
2023-04-11T08:33:04.837Z,46.39
2023-04-11T08:35:32.274Z,45.90
2023-04-11T08:37:59.550Z,46.10
2023-04-11T08:40:28.463Z,44.25
2023-04-11T08:43:00.261Z,43.72
2023-04-11T08:45:28.359Z,43.13
2023-04-11T08:47:55.981Z,44.28
2023-04-11T08:50:23.370Z,43.33
2023-04-11T08:52:53.188Z,43.67
2023-04-11T08:55:20.619Z,43.43
2023-04-11T08:57:49.345Z,42.27
2023-04-11T09:00:19.338Z,40.91
2023-04-11T09:02:58.157Z,41.65
2023-04-11T09:05:27.038Z,42.55
2023-04-11T09:07:55.197Z,41.43
2023-04-11T09:10:23.731Z,41.26
2023-04-11T09:12:53.239Z,40.55
2023-04-11T09:15:22.110Z,40.65
2023-04-11T09:17:50.183Z,40.83
2023-04-11T09:20:19.454Z,41.34
2023-04-11T09:22:50.837Z,39.64
2023-04-11T09:25:18.739Z,39.78
2023-04-11T09:27:46.208Z,40.26
2023-04-11T09:30:24.513Z,40.53
2023-04-11T09:32:56.216Z,40.66
2023-04-11T09:35:28.121Z,40.58
2023-04-11T09:37:56.882Z,39.73
2023-04-11T09:40:25.933Z,39.19
2023-04-11T09:43:00.962Z,39.55
2023-04-11T09:45:35.858Z,40.21
2023-04-11T09:48:08.719Z,40.23
2023-04-11T09:50:38.661Z,39.69
2023-04-11T09:53:06.755Z,39.17
2023-04-11T09:55:34.096Z,39.41
2023-04-11T09:58:01.588Z,39.82
2023-04-11T10:00:32.348Z,39.36
2023-04-11T10:03:00.019Z,39.37
2023-04-11T10:05:28.872Z,38.75
2023-04-11T10:08:03.413Z,37.80
2023-04-11T10:10:31.134Z,37.19
2023-04-11T10:12:58.695Z,36.57
2023-04-11T10:15:26.019Z,37.05
2023-04-11T10:18:10.315Z,35.73
2023-04-11T10:20:44.995Z,36.10
2023-04-11T10:23:13.231Z,36.05
2023-04-11T10:26:00.143Z,36.59
2023-04-11T10:28:32.776Z,36.83
2023-04-11T10:31:03.086Z,36.50
2023-04-11T10:33:32.425Z,36.20
2023-04-11T10:36:22.650Z,36.57
2023-04-11T10:38:51.626Z,37.08
2023-04-11T10:41:26.147Z,37.58
2023-04-11T10:44:13.892Z,37.72
2023-04-11T10:46:49.814Z,37.47
2023-04-11T10:49:36.719Z,36.86
2023-04-11T10:52:24.810Z,36.34
2023-04-11T10:54:52.914Z,36.30
2023-04-11T10:57:21.727Z,36.40
2023-04-11T11:00:09.602Z,36.00
2023-04-11T11:02:38.557Z,35.83
2023-04-11T11:05:21.337Z,35.07
2023-04-11T11:07:53.386Z,34.38
2023-04-11T11:10:41.143Z,34.17
2023-04-11T11:13:09.107Z,34.13
2023-04-11T11:15:40.293Z,34.04
2023-04-11T11:18:09.342Z,33.26
2023-04-11T11:20:38.279Z,33.48
2023-04-11T11:23:07.926Z,33.13
2023-04-11T11:25:35.747Z,33.24
2023-04-11T11:28:04.920Z,33.71
2023-04-11T11:30:32.846Z,34.33
2023-04-11T11:33:00.415Z,34.92
2023-04-11T11:35:29.070Z,35.43
2023-04-11T11:37:57.772Z,35.13
2023-04-11T11:40:25.047Z,35.08
2023-04-11T11:42:52.832Z,34.70
2023-04-11T11:45:21.816Z,34.60
2023-04-11T11:47:50.724Z,34.52
2023-04-11T11:50:26.713Z,34.24
2023-04-11T11:52:54.420Z,33.83
2023-04-11T11:55:33.329Z,34.23
2023-04-11T11:58:02.842Z,34.63
2023-04-11T12:00:35.393Z,34.75
2023-04-11T12:03:03.271Z,34.64
2023-04-11T12:05:32.646Z,35.05
2023-04-11T12:08:01.326Z,35.32
2023-04-11T12:10:38.226Z,35.37
2023-04-11T12:13:16.249Z,35.09
2023-04-11T12:15:46.731Z,35.18
2023-04-11T12:18:14.051Z,34.75
2023-04-11T12:20:41.662Z,35.03
2023-04-11T12:23:09.039Z,35.18
2023-04-11T12:25:38.029Z,35.28
2023-04-11T12:28:06.134Z,35.13
2023-04-11T12:30:33.506Z,35.07
2023-04-11T12:33:01.557Z,34.66
2023-04-11T12:35:29.254Z,35.08
2023-04-11T12:37:56.715Z,35.44
2023-04-11T12:40:24.409Z,35.13
2023-04-11T12:42:57.157Z,35.08
2023-04-11T12:45:25.174Z,34.61
2023-04-11T12:47:55.474Z,34.48
2023-04-11T12:50:24.026Z,33.75
2023-04-11T12:52:52.012Z,34.30
2023-04-11T12:55:19.596Z,34.20
2023-04-11T12:57:47.007Z,33.42
2023-04-11T13:00:17.548Z,32.88
2023-04-11T13:02:45.723Z,33.14
2023-04-11T13:05:18.182Z,31.64
2023-04-11T13:07:46.257Z,31.55
2023-04-11T13:10:14.483Z,31.76
2023-04-11T13:12:44.874Z,31.79
2023-04-11T13:15:13.697Z,31.28
2023-04-11T13:17:42.643Z,31.21
2023-04-11T13:20:11.329Z,30.51
2023-04-11T13:22:39.019Z,31.11
2023-04-11T13:25:07.432Z,31.10
2023-04-11T13:27:34.893Z,31.67
2023-04-11T13:30:04.910Z,31.89
2023-04-11T13:32:32.617Z,32.09
2023-04-11T13:35:01.448Z,32.29
2023-04-11T13:37:28.972Z,32.62
2023-04-11T13:39:59.005Z,32.88
2023-04-11T13:42:26.594Z,33.04
2023-04-11T13:44:54.389Z,33.27
2023-04-11T13:47:21.937Z,33.40
2023-04-11T13:49:49.217Z,32.84
2023-04-11T13:52:17.830Z,32.95
2023-04-11T13:54:45.114Z,33.16
2023-04-11T13:57:12.629Z,32.84
2023-04-11T13:59:42.305Z,32.67
2023-04-11T14:02:09.771Z,32.54
2023-04-11T14:04:37.100Z,31.94
2023-04-11T14:07:04.357Z,32.50
2023-04-11T14:09:33.021Z,31.73
2023-04-11T14:12:01.496Z,31.31
2023-04-11T14:14:28.851Z,31.54
2023-04-11T14:16:56.362Z,30.95
2023-04-11T14:19:25.000Z,29.81
2023-04-11T14:21:52.435Z,30.67
2023-04-11T14:24:22.301Z,30.50
2023-04-11T14:26:51.220Z,30.56
2023-04-11T14:29:19.850Z,30.09
2023-04-11T14:31:48.444Z,30.36
2023-04-11T14:34:16.638Z,30.21
2023-04-11T14:36:43.894Z,29.65
2023-04-11T14:39:11.179Z,29.58
2023-04-11T14:41:38.475Z,29.89
2023-04-11T14:44:07.311Z,29.87
2023-04-11T14:46:35.680Z,29.31
2023-04-11T14:49:03.645Z,28.69
2023-04-11T14:51:31.364Z,28.79
2023-04-11T14:53:59.985Z,29.24
2023-04-11T14:56:27.354Z,29.99
2023-04-11T14:58:54.955Z,30.60
2023-04-11T15:01:24.534Z,30.54
2023-04-11T15:03:52.223Z,30.85
2023-04-11T15:06:19.640Z,31.11
2023-04-11T15:08:48.479Z,31.09
2023-04-11T15:11:16.396Z,31.56
2023-04-11T15:13:47.978Z,32.06
2023-04-11T15:16:15.363Z,32.19
2023-04-11T15:18:44.240Z,32.29
2023-04-11T15:21:11.538Z,32.42
2023-04-11T15:23:39.052Z,32.34
2023-04-11T15:26:08.317Z,32.55
2023-04-11T15:28:37.303Z,32.66
2023-04-11T15:31:06.285Z,32.30
2023-04-11T15:33:34.172Z,32.70
2023-04-11T15:36:03.269Z,32.92
2023-04-11T15:38:30.834Z,32.73
2023-04-11T15:41:00.011Z,33.02
2023-04-11T15:43:27.675Z,33.41
2023-04-11T15:45:55.071Z,33.45
2023-04-11T15:48:25.582Z,33.07
2023-04-11T15:50:52.941Z,33.20
2023-04-11T15:53:21.891Z,33.39
2023-04-11T15:55:49.520Z,33.55
2023-04-11T15:58:17.095Z,33.68
2023-04-11T16:00:44.893Z,33.66
2023-04-11T16:03:12.420Z,33.48
2023-04-11T16:05:43.203Z,33.56
2023-04-11T16:08:10.804Z,33.53
2023-04-11T16:10:39.605Z,33.71
2023-04-11T16:13:06.981Z,33.87
2023-04-11T16:15:34.409Z,34.15
2023-04-11T16:18:02.014Z,33.89
2023-04-11T16:20:29.351Z,34.29
2023-04-11T16:22:56.783Z,34.71
2023-04-11T16:25:24.153Z,34.96
2023-04-11T16:27:53.108Z,35.16
2023-04-11T16:30:20.595Z,35.31
2023-04-11T16:32:47.905Z,35.52
2023-04-11T16:35:15.218Z,35.76
2023-04-11T16:37:42.613Z,35.84
2023-04-11T16:40:13.154Z,36.10
2023-04-11T16:42:40.589Z,36.30
2023-04-11T16:45:10.941Z,36.60
2023-04-11T16:47:41.181Z,36.88
2023-04-11T16:50:09.543Z,37.02
2023-04-11T16:52:36.891Z,36.75
2023-04-11T16:55:05.006Z,37.03
2023-04-11T16:57:33.499Z,37.51
2023-04-11T17:00:07.219Z,37.30
2023-04-11T17:02:36.129Z,37.44
2023-04-11T17:05:04.294Z,37.54
2023-04-11T17:07:33.405Z,38.08
2023-04-11T17:10:00.887Z,37.85
2023-04-11T17:12:28.408Z,38.12
2023-04-11T17:14:56.199Z,38.17
2023-04-11T17:17:23.629Z,38.22
2023-04-11T17:19:52.581Z,38.42
2023-04-11T17:22:20.167Z,38.85
2023-04-11T17:24:47.463Z,38.87
2023-04-11T17:27:14.916Z,38.95
2023-04-11T17:29:42.384Z,39.15
2023-04-11T17:32:09.582Z,39.33
2023-04-11T17:34:37.081Z,39.68
2023-04-11T17:37:06.642Z,39.87
2023-04-11T17:39:33.885Z,40.06
2023-04-11T17:42:01.560Z,40.38
2023-04-11T17:44:28.884Z,40.51
2023-04-11T17:46:56.661Z,40.27
2023-04-11T17:49:25.087Z,40.35
2023-04-11T17:51:59.049Z,40.58
2023-04-11T17:54:28.710Z,40.49
2023-04-11T17:56:56.505Z,40.74
2023-04-11T17:59:25.532Z,40.78
2023-04-11T18:01:56.218Z,40.92
2023-04-11T18:04:23.985Z,41.16
2023-04-11T18:06:51.489Z,41.53
2023-04-11T18:09:18.755Z,41.52
2023-04-11T18:11:47.455Z,41.31
2023-04-11T18:14:14.883Z,41.47
2023-04-11T18:16:42.145Z,41.65
2023-04-11T18:19:09.560Z,41.65
2023-04-11T18:21:38.725Z,41.83
2023-04-11T18:24:06.755Z,41.94
2023-04-11T18:26:35.550Z,41.67
2023-04-11T18:29:04.535Z,42.17
2023-04-11T18:31:35.201Z,42.16
2023-04-11T18:34:03.548Z,42.40
2023-04-11T18:36:31.024Z,42.17
2023-04-11T18:38:58.405Z,42.25
2023-04-11T18:41:26.113Z,42.61
2023-04-11T18:43:53.493Z,42.67
2023-04-11T18:46:22.575Z,42.75
2023-04-11T18:48:50.013Z,43.11
2023-04-11T18:51:17.545Z,42.87
2023-04-11T18:53:45.273Z,43.06
2023-04-11T18:56:12.505Z,42.76
2023-04-11T18:58:45.552Z,43.07
2023-04-11T19:01:16.921Z,43.15
2023-04-11T19:03:46.827Z,43.40
2023-04-11T19:06:14.325Z,43.55
2023-04-11T19:08:41.737Z,43.57
2023-04-11T19:11:09.067Z,43.85
2023-04-11T19:13:36.744Z,43.68
2023-04-11T19:16:04.510Z,44.25
2023-04-11T19:18:31.986Z,44.12
2023-04-11T19:21:01.452Z,44.45
2023-04-11T19:23:28.991Z,44.74
2023-04-11T19:25:56.827Z,44.65
2023-04-11T19:28:24.147Z,44.52
2023-04-11T19:30:51.489Z,44.59
2023-04-11T19:33:18.931Z,45.10
2023-04-11T19:35:46.606Z,44.99
2023-04-11T19:38:15.413Z,45.17
2023-04-11T19:40:42.796Z,45.84
2023-04-11T19:43:10.099Z,45.62
2023-04-11T19:45:37.430Z,45.59
2023-04-11T19:48:05.216Z,45.98
2023-04-11T19:50:32.736Z,46.08
2023-04-11T19:53:01.680Z,46.44
2023-04-11T19:55:33.240Z,46.34
2023-04-11T19:58:03.100Z,46.86
2023-04-11T20:00:36.295Z,46.83
2023-04-11T20:03:10.625Z,47.18
2023-04-11T20:05:39.251Z,47.48
2023-04-11T20:08:10.929Z,46.69
2023-04-11T20:10:41.971Z,46.79
2023-04-11T20:13:12.172Z,47.00
2023-04-11T20:15:41.864Z,47.10
2023-04-11T20:18:12.008Z,46.95
2023-04-11T20:20:39.317Z,47.31
2023-04-11T20:23:07.322Z,47.85
2023-04-11T20:25:35.132Z,47.99
2023-04-11T20:28:04.031Z,47.74
2023-04-11T20:30:32.520Z,47.87
2023-04-11T20:33:00.076Z,47.65
2023-04-11T20:35:27.717Z,47.39
2023-04-11T20:37:56.233Z,48.17
2023-04-11T20:40:24.012Z,48.04
2023-04-11T20:42:51.228Z,48.00
2023-04-11T20:45:25.894Z,48.68
2023-04-11T20:47:53.671Z,48.75
2023-04-11T20:50:21.652Z,48.81
2023-04-11T20:52:53.178Z,48.62
2023-04-11T20:55:21.119Z,48.91
2023-04-11T20:57:48.689Z,48.54
2023-04-11T21:00:17.609Z,48.74
2023-04-11T21:02:49.957Z,48.76
2023-04-11T21:05:21.472Z,49.09
2023-04-11T21:07:50.218Z,48.78
2023-04-11T21:10:19.340Z,49.06
2023-04-11T21:12:51.931Z,49.15
2023-04-11T21:15:20.135Z,49.22
2023-04-11T21:17:50.391Z,49.79
2023-04-11T21:20:18.640Z,49.39
2023-04-11T21:22:47.165Z,49.78
2023-04-11T21:25:15.915Z,50.12
2023-04-11T21:27:43.352Z,50.36
2023-04-11T21:30:11.577Z,50.54
2023-04-11T21:32:39.709Z,50.73
2023-04-11T21:35:09.944Z,51.42
2023-04-11T21:37:37.403Z,51.54
2023-04-11T21:40:05.681Z,51.79
2023-04-11T21:42:33.071Z,52.01
2023-04-11T21:45:00.543Z,52.20
2023-04-11T21:47:27.861Z,52.11
2023-04-11T21:49:55.061Z,52.39
2023-04-11T21:52:23.739Z,52.27
2023-04-11T21:54:51.098Z,51.93
2023-04-11T21:57:18.330Z,52.21
2023-04-11T21:59:46.859Z,52.41
2023-04-11T22:02:14.644Z,52.05
2023-04-11T22:04:55.794Z,52.49
2023-04-11T22:07:50.305Z,52.58
2023-04-11T22:10:23.344Z,52.92
2023-04-11T22:12:54.041Z,52.48
2023-04-11T22:15:21.680Z,52.74
2023-04-11T22:17:51.268Z,53.03
2023-04-11T22:20:20.074Z,53.25
2023-04-11T22:22:48.896Z,53.17
2023-04-11T22:25:18.414Z,53.44
2023-04-11T22:27:45.817Z,53.13
2023-04-11T22:30:14.869Z,53.31
2023-04-11T22:32:42.340Z,53.35
2023-04-11T22:35:11.106Z,53.01
2023-04-11T22:37:38.367Z,53.16
2023-04-11T22:40:11.565Z,53.62
2023-04-11T22:42:40.482Z,53.46
2023-04-11T22:45:08.771Z,53.94
2023-04-11T22:47:38.210Z,54.01
2023-04-11T22:50:06.270Z,54.24
2023-04-11T22:52:35.623Z,53.91
2023-04-11T22:55:04.761Z,54.33
2023-04-11T22:57:35.157Z,53.79
2023-04-11T23:00:04.756Z,54.12
2023-04-11T23:02:32.351Z,54.44
2023-04-11T23:05:02.276Z,54.50
2023-04-11T23:07:32.907Z,54.54
2023-04-11T23:10:01.227Z,54.63
2023-04-11T23:12:30.094Z,55.28
2023-04-11T23:15:02.421Z,54.91
2023-04-11T23:17:30.423Z,55.06
2023-04-11T23:19:59.460Z,55.09
2023-04-11T23:22:27.613Z,55.66
2023-04-11T23:24:55.035Z,55.43
2023-04-11T23:27:22.973Z,55.50
2023-04-11T23:29:50.736Z,55.17
2023-04-11T23:32:19.871Z,55.72
2023-04-11T23:34:47.151Z,55.77
2023-04-11T23:37:14.718Z,55.79
2023-04-11T23:39:42.239Z,55.75
2023-04-11T23:42:09.558Z,55.93
2023-04-11T23:44:36.770Z,55.86
2023-04-11T23:47:03.956Z,56.11
2023-04-11T23:49:32.689Z,56.06
2023-04-11T23:51:59.863Z,56.25
2023-04-11T23:54:30.451Z,56.42
2023-04-11T23:56:58.172Z,56.54
2023-04-11T23:59:25.475Z,56.42
